sensor_id;sensor_type;location;lat;lon;timestamp;temperature;humidity
27940;DHT22;15275;51.716;14.324;2022-08-01T00:01:07;25.20;60.50
27940;DHT22;15275;51.716;14.324;2022-08-01T00:03:33;25.20;60.50
27940;DHT22;15275;51.716;14.324;2022-08-01T00:05:59;25.20;60.60
27940;DHT22;15275;51.716;14.324;2022-08-01T00:08:25;25.20;60.40
27940;DHT22;15275;51.716;14.324;2022-08-01T00:10:51;25.20;60.50
27940;DHT22;15275;51.716;14.324;2022-08-01T00:13:17;25.20;60.40
27940;DHT22;15275;51.716;14.324;2022-08-01T00:15:42;25.20;60.50
27940;DHT22;15275;51.716;14.324;2022-08-01T00:18:08;25.20;60.50
27940;DHT22;15275;51.716;14.324;2022-08-01T00:20:34;25.20;60.50
27940;DHT22;15275;51.716;14.324;2022-08-01T00:23:02;25.20;60.70
27940;DHT22;15275;51.716;14.324;2022-08-01T00:25:29;25.20;60.60
27940;DHT22;15275;51.716;14.324;2022-08-01T00:27:54;25.20;60.70
27940;DHT22;15275;51.716;14.324;2022-08-01T00:30:20;25.20;60.70
27940;DHT22;15275;51.716;14.324;2022-08-01T00:32:46;25.20;60.70
27940;DHT22;15275;51.716;14.324;2022-08-01T00:35:12;25.20;60.80
27940;DHT22;15275;51.716;14.324;2022-08-01T00:37:39;25.10;60.80
27940;DHT22;15275;51.716;14.324;2022-08-01T00:40:06;25.10;60.90
27940;DHT22;15275;51.716;14.324;2022-08-01T00:42:32;25.10;60.80
27940;DHT22;15275;51.716;14.324;2022-08-01T00:44:58;25.10;60.90
27940;DHT22;15275;51.716;14.324;2022-08-01T00:47:24;25.10;60.90
27940;DHT22;15275;51.716;14.324;2022-08-01T00:49:50;25.10;60.80
27940;DHT22;15275;51.716;14.324;2022-08-01T00:52:16;25.00;60.90
27940;DHT22;15275;51.716;14.324;2022-08-01T00:54:43;25.00;60.90
27940;DHT22;15275;51.716;14.324;2022-08-01T00:57:09;25.00;61.00
27940;DHT22;15275;51.716;14.324;2022-08-01T00:59:36;25.00;61.10
27940;DHT22;15275;51.716;14.324;2022-08-01T01:02:02;24.90;61.30
27940;DHT22;15275;51.716;14.324;2022-08-01T01:04:28;24.90;61.30
27940;DHT22;15275;51.716;14.324;2022-08-01T01:13:03;24.80;61.10
27940;DHT22;15275;51.716;14.324;2022-08-01T01:15:40;24.80;61.60
27940;DHT22;15275;51.716;14.324;2022-08-01T01:18:20;24.80;62.00
27940;DHT22;15275;51.716;14.324;2022-08-01T01:21:00;24.80;61.90
27940;DHT22;15275;51.716;14.324;2022-08-01T01:27:12;24.70;61.90
27940;DHT22;15275;51.716;14.324;2022-08-01T01:29:56;24.60;62.00
27940;DHT22;15275;51.716;14.324;2022-08-01T01:32:39;24.60;62.50
27940;DHT22;15275;51.716;14.324;2022-08-01T01:35:26;24.50;62.20
27940;DHT22;15275;51.716;14.324;2022-08-01T01:38:00;24.50;62.30
27940;DHT22;15275;51.716;14.324;2022-08-01T01:40:30;24.50;62.70
27940;DHT22;15275;51.716;14.324;2022-08-01T01:42:57;24.40;62.90
27940;DHT22;15275;51.716;14.324;2022-08-01T01:45:24;24.40;62.80
27940;DHT22;15275;51.716;14.324;2022-08-01T01:47:51;24.40;62.90
27940;DHT22;15275;51.716;14.324;2022-08-01T01:50:20;24.40;62.90
27940;DHT22;15275;51.716;14.324;2022-08-01T01:52:48;24.30;63.00
27940;DHT22;15275;51.716;14.324;2022-08-01T01:55:15;24.30;63.10
27940;DHT22;15275;51.716;14.324;2022-08-01T01:57:44;24.30;63.20
27940;DHT22;15275;51.716;14.324;2022-08-01T02:00:12;24.30;63.20
27940;DHT22;15275;51.716;14.324;2022-08-01T02:02:40;24.20;63.30
27940;DHT22;15275;51.716;14.324;2022-08-01T02:05:09;24.20;63.30
27940;DHT22;15275;51.716;14.324;2022-08-01T02:07:37;24.20;63.40
27940;DHT22;15275;51.716;14.324;2022-08-01T02:10:05;24.20;63.50
27940;DHT22;15275;51.716;14.324;2022-08-01T02:12:35;24.10;63.60
27940;DHT22;15275;51.716;14.324;2022-08-01T02:15:03;24.10;63.70
27940;DHT22;15275;51.716;14.324;2022-08-01T02:17:31;24.10;63.80
27940;DHT22;15275;51.716;14.324;2022-08-01T02:19:58;24.10;64.00
27940;DHT22;15275;51.716;14.324;2022-08-01T02:22:29;24.10;64.00
27940;DHT22;15275;51.716;14.324;2022-08-01T02:25:31;24.00;64.10
27940;DHT22;15275;51.716;14.324;2022-08-01T02:28:20;24.00;63.80
27940;DHT22;15275;51.716;14.324;2022-08-01T02:30:50;24.00;63.90
27940;DHT22;15275;51.716;14.324;2022-08-01T02:33:23;24.00;64.40
27940;DHT22;15275;51.716;14.324;2022-08-01T02:35:52;24.00;64.40
27940;DHT22;15275;51.716;14.324;2022-08-01T02:38:23;23.90;64.50
27940;DHT22;15275;51.716;14.324;2022-08-01T02:40:50;23.90;64.50
27940;DHT22;15275;51.716;14.324;2022-08-01T02:43:21;23.90;64.70
27940;DHT22;15275;51.716;14.324;2022-08-01T02:45:52;23.90;64.70
27940;DHT22;15275;51.716;14.324;2022-08-01T02:48:23;23.90;64.70
27940;DHT22;15275;51.716;14.324;2022-08-01T02:50:54;23.90;64.80
27940;DHT22;15275;51.716;14.324;2022-08-01T02:53:23;23.90;64.80
27940;DHT22;15275;51.716;14.324;2022-08-01T02:55:51;23.90;64.80
27940;DHT22;15275;51.716;14.324;2022-08-01T02:58:20;23.90;64.90
27940;DHT22;15275;51.716;14.324;2022-08-01T03:00:49;23.90;64.90
27940;DHT22;15275;51.716;14.324;2022-08-01T03:03:17;23.90;64.90
27940;DHT22;15275;51.716;14.324;2022-08-01T03:05:44;23.90;65.00
27940;DHT22;15275;51.716;14.324;2022-08-01T03:08:10;23.90;65.00
27940;DHT22;15275;51.716;14.324;2022-08-01T03:10:39;23.90;65.00
27940;DHT22;15275;51.716;14.324;2022-08-01T03:13:07;23.90;64.90
27940;DHT22;15275;51.716;14.324;2022-08-01T03:15:37;23.90;65.00
27940;DHT22;15275;51.716;14.324;2022-08-01T03:18:07;23.90;65.00
27940;DHT22;15275;51.716;14.324;2022-08-01T03:20:35;23.90;65.00
27940;DHT22;15275;51.716;14.324;2022-08-01T03:23:06;23.90;65.10
27940;DHT22;15275;51.716;14.324;2022-08-01T03:25:36;23.90;64.90
27940;DHT22;15275;51.716;14.324;2022-08-01T03:28:06;23.90;65.00
27940;DHT22;15275;51.716;14.324;2022-08-01T03:30:36;23.90;65.10
27940;DHT22;15275;51.716;14.324;2022-08-01T03:33:03;23.90;65.20
27940;DHT22;15275;51.716;14.324;2022-08-01T03:35:32;23.90;65.20
27940;DHT22;15275;51.716;14.324;2022-08-01T03:38:01;23.90;65.20
27940;DHT22;15275;51.716;14.324;2022-08-01T03:43:22;23.90;65.00
27940;DHT22;15275;51.716;14.324;2022-08-01T03:45:55;23.90;65.40
27940;DHT22;15275;51.716;14.324;2022-08-01T03:48:28;23.90;65.40
27940;DHT22;15275;51.716;14.324;2022-08-01T03:50:55;23.90;65.40
27940;DHT22;15275;51.716;14.324;2022-08-01T03:53:26;23.90;65.50
27940;DHT22;15275;51.716;14.324;2022-08-01T03:55:59;23.90;65.50
27940;DHT22;15275;51.716;14.324;2022-08-01T03:58:28;23.80;65.50
27940;DHT22;15275;51.716;14.324;2022-08-01T04:00:55;23.80;65.60
27940;DHT22;15275;51.716;14.324;2022-08-01T04:03:22;23.80;65.60
27940;DHT22;15275;51.716;14.324;2022-08-01T04:05:49;23.80;65.60
27940;DHT22;15275;51.716;14.324;2022-08-01T04:08:16;23.80;65.60
27940;DHT22;15275;51.716;14.324;2022-08-01T04:10:43;23.80;65.60
27940;DHT22;15275;51.716;14.324;2022-08-01T04:13:09;23.80;65.60
27940;DHT22;15275;51.716;14.324;2022-08-01T04:15:35;23.80;65.60
27940;DHT22;15275;51.716;14.324;2022-08-01T04:18:01;23.80;65.60
27940;DHT22;15275;51.716;14.324;2022-08-01T04:20:28;23.80;65.60
27940;DHT22;15275;51.716;14.324;2022-08-01T04:22:55;23.80;65.70
27940;DHT22;15275;51.716;14.324;2022-08-01T04:25:26;23.80;65.80
27940;DHT22;15275;51.716;14.324;2022-08-01T04:27:56;23.80;65.90
27940;DHT22;15275;51.716;14.324;2022-08-01T04:30:27;23.80;66.00
27940;DHT22;15275;51.716;14.324;2022-08-01T04:32:58;23.70;66.00
27940;DHT22;15275;51.716;14.324;2022-08-01T04:35:25;23.80;66.10
27940;DHT22;15275;51.716;14.324;2022-08-01T04:37:53;23.80;66.10
27940;DHT22;15275;51.716;14.324;2022-08-01T04:40:20;23.80;66.20
27940;DHT22;15275;51.716;14.324;2022-08-01T04:42:48;23.80;66.40
27940;DHT22;15275;51.716;14.324;2022-08-01T04:45:15;23.90;66.50
27940;DHT22;15275;51.716;14.324;2022-08-01T04:47:42;23.90;66.50
27940;DHT22;15275;51.716;14.324;2022-08-01T04:50:09;24.00;66.50
27940;DHT22;15275;51.716;14.324;2022-08-01T04:52:37;24.00;66.30
27940;DHT22;15275;51.716;14.324;2022-08-01T04:55:04;24.10;66.30
27940;DHT22;15275;51.716;14.324;2022-08-01T04:57:39;24.20;66.20
27940;DHT22;15275;51.716;14.324;2022-08-01T05:00:07;24.20;66.00
27940;DHT22;15275;51.716;14.324;2022-08-01T05:02:33;24.30;66.30
27940;DHT22;15275;51.716;14.324;2022-08-01T05:04:59;24.30;66.30
27940;DHT22;15275;51.716;14.324;2022-08-01T05:07:25;24.40;66.20
27940;DHT22;15275;51.716;14.324;2022-08-01T05:09:51;24.40;66.30
27940;DHT22;15275;51.716;14.324;2022-08-01T05:12:18;24.50;66.30
27940;DHT22;15275;51.716;14.324;2022-08-01T05:14:45;24.60;66.20
27940;DHT22;15275;51.716;14.324;2022-08-01T05:17:11;24.70;66.10
27940;DHT22;15275;51.716;14.324;2022-08-01T05:19:38;24.70;65.80
27940;DHT22;15275;51.716;14.324;2022-08-01T05:22:07;24.80;65.60
27940;DHT22;15275;51.716;14.324;2022-08-01T05:24:35;24.90;65.40
27940;DHT22;15275;51.716;14.324;2022-08-01T05:27:02;24.90;65.30
27940;DHT22;15275;51.716;14.324;2022-08-01T05:29:30;24.90;65.20
27940;DHT22;15275;51.716;14.324;2022-08-01T05:31:56;25.00;65.20
27940;DHT22;15275;51.716;14.324;2022-08-01T05:34:23;25.00;65.20
27940;DHT22;15275;51.716;14.324;2022-08-01T05:36:50;25.00;65.20
27940;DHT22;15275;51.716;14.324;2022-08-01T05:39:16;25.10;65.20
27940;DHT22;15275;51.716;14.324;2022-08-01T05:41:42;25.10;65.20
27940;DHT22;15275;51.716;14.324;2022-08-01T05:44:08;25.20;65.20
27940;DHT22;15275;51.716;14.324;2022-08-01T05:46:35;25.20;65.20
27940;DHT22;15275;51.716;14.324;2022-08-01T05:49:02;25.20;65.20
27940;DHT22;15275;51.716;14.324;2022-08-01T05:51:29;25.20;65.20
27940;DHT22;15275;51.716;14.324;2022-08-01T05:53:55;25.20;65.20
27940;DHT22;15275;51.716;14.324;2022-08-01T05:56:22;25.30;65.40
27940;DHT22;15275;51.716;14.324;2022-08-01T05:58:49;25.30;65.50
27940;DHT22;15275;51.716;14.324;2022-08-01T06:01:16;25.30;65.60
27940;DHT22;15275;51.716;14.324;2022-08-01T06:03:43;25.40;65.60
27940;DHT22;15275;51.716;14.324;2022-08-01T06:06:09;25.40;65.60
27940;DHT22;15275;51.716;14.324;2022-08-01T06:08:35;25.40;65.70
27940;DHT22;15275;51.716;14.324;2022-08-01T06:11:01;25.50;65.50
27940;DHT22;15275;51.716;14.324;2022-08-01T06:13:27;25.50;65.60
27940;DHT22;15275;51.716;14.324;2022-08-01T06:15:54;25.60;65.60
27940;DHT22;15275;51.716;14.324;2022-08-01T06:18:21;25.60;65.60
27940;DHT22;15275;51.716;14.324;2022-08-01T06:20:47;25.60;65.60
27940;DHT22;15275;51.716;14.324;2022-08-01T06:23:13;25.60;65.40
27940;DHT22;15275;51.716;14.324;2022-08-01T06:25:41;25.60;65.40
27940;DHT22;15275;51.716;14.324;2022-08-01T06:28:08;25.60;65.40
27940;DHT22;15275;51.716;14.324;2022-08-01T06:30:34;25.60;65.40
27940;DHT22;15275;51.716;14.324;2022-08-01T06:33:00;25.60;65.60
27940;DHT22;15275;51.716;14.324;2022-08-01T06:35:26;25.60;65.60
27940;DHT22;15275;51.716;14.324;2022-08-01T06:37:55;25.60;65.80
27940;DHT22;15275;51.716;14.324;2022-08-01T06:40:22;25.60;65.80
27940;DHT22;15275;51.716;14.324;2022-08-01T06:42:48;25.60;65.70
27940;DHT22;15275;51.716;14.324;2022-08-01T06:45:14;25.60;65.80
27940;DHT22;15275;51.716;14.324;2022-08-01T06:47:42;25.60;65.90
27940;DHT22;15275;51.716;14.324;2022-08-01T06:50:09;25.70;65.90
27940;DHT22;15275;51.716;14.324;2022-08-01T06:52:37;25.70;66.10
27940;DHT22;15275;51.716;14.324;2022-08-01T06:55:03;25.80;66.20
27940;DHT22;15275;51.716;14.324;2022-08-01T06:57:30;25.80;66.30
27940;DHT22;15275;51.716;14.324;2022-08-01T06:59:56;25.90;66.20
27940;DHT22;15275;51.716;14.324;2022-08-01T07:02:22;25.90;66.30
27940;DHT22;15275;51.716;14.324;2022-08-01T07:04:48;26.00;66.30
27940;DHT22;15275;51.716;14.324;2022-08-01T07:07:14;26.00;66.30
27940;DHT22;15275;51.716;14.324;2022-08-01T07:09:40;26.10;66.30
27940;DHT22;15275;51.716;14.324;2022-08-01T07:12:08;26.20;65.90
27940;DHT22;15275;51.716;14.324;2022-08-01T07:14:34;26.20;65.90
27940;DHT22;15275;51.716;14.324;2022-08-01T07:17:00;26.30;65.90
27940;DHT22;15275;51.716;14.324;2022-08-01T07:19:26;26.30;65.90
27940;DHT22;15275;51.716;14.324;2022-08-01T07:21:53;26.30;65.90
27940;DHT22;15275;51.716;14.324;2022-08-01T07:24:19;26.40;65.90
27940;DHT22;15275;51.716;14.324;2022-08-01T07:26:47;26.40;65.80
27940;DHT22;15275;51.716;14.324;2022-08-01T07:29:14;26.50;65.60
27940;DHT22;15275;51.716;14.324;2022-08-01T07:31:40;26.50;65.60
27940;DHT22;15275;51.716;14.324;2022-08-01T07:34:07;26.50;65.60
27940;DHT22;15275;51.716;14.324;2022-08-01T07:36:33;26.60;65.60
27940;DHT22;15275;51.716;14.324;2022-08-01T07:38:59;26.60;65.70
27940;DHT22;15275;51.716;14.324;2022-08-01T07:41:25;26.60;65.70
27940;DHT22;15275;51.716;14.324;2022-08-01T07:43:50;26.70;65.60
27940;DHT22;15275;51.716;14.324;2022-08-01T07:46:16;26.80;65.10
27940;DHT22;15275;51.716;14.324;2022-08-01T07:48:43;26.80;65.10
27940;DHT22;15275;51.716;14.324;2022-08-01T07:51:09;26.90;65.00
27940;DHT22;15275;51.716;14.324;2022-08-01T07:53:36;26.90;64.90
27940;DHT22;15275;51.716;14.324;2022-08-01T07:56:03;26.90;64.80
27940;DHT22;15275;51.716;14.324;2022-08-01T07:58:31;26.90;64.70
27940;DHT22;15275;51.716;14.324;2022-08-01T08:00:57;27.00;64.80
27940;DHT22;15275;51.716;14.324;2022-08-01T08:03:23;27.00;64.80
27940;DHT22;15275;51.716;14.324;2022-08-01T08:05:49;27.00;64.80
27940;DHT22;15275;51.716;14.324;2022-08-01T08:08:15;27.00;64.90
27940;DHT22;15275;51.716;14.324;2022-08-01T08:10:43;27.00;64.90
27940;DHT22;15275;51.716;14.324;2022-08-01T08:13:09;27.10;64.90
27940;DHT22;15275;51.716;14.324;2022-08-01T08:15:35;27.20;64.70
27940;DHT22;15275;51.716;14.324;2022-08-01T08:18:03;27.20;64.50
27940;DHT22;15275;51.716;14.324;2022-08-01T08:20:29;27.30;64.30
27940;DHT22;15275;51.716;14.324;2022-08-01T08:22:55;27.30;64.00
27940;DHT22;15275;51.716;14.324;2022-08-01T08:25:23;27.30;63.90
27940;DHT22;15275;51.716;14.324;2022-08-01T08:27:50;27.30;63.80
27940;DHT22;15275;51.716;14.324;2022-08-01T08:30:17;27.30;63.80
27940;DHT22;15275;51.716;14.324;2022-08-01T08:32:43;27.30;63.90
27940;DHT22;15275;51.716;14.324;2022-08-01T08:35:10;27.20;64.20
27940;DHT22;15275;51.716;14.324;2022-08-01T08:37:36;27.30;64.20
27940;DHT22;15275;51.716;14.324;2022-08-01T08:40:06;27.40;64.70
27940;DHT22;15275;51.716;14.324;2022-08-01T08:42:33;27.50;64.40
27940;DHT22;15275;51.716;14.324;2022-08-01T08:45:00;27.60;64.30
27940;DHT22;15275;51.716;14.324;2022-08-01T08:47:28;27.70;64.10
27940;DHT22;15275;51.716;14.324;2022-08-01T08:49:57;27.80;63.80
27940;DHT22;15275;51.716;14.324;2022-08-01T08:52:23;27.80;63.60
27940;DHT22;15275;51.716;14.324;2022-08-01T08:54:50;27.90;63.60
27940;DHT22;15275;51.716;14.324;2022-08-01T08:57:19;27.90;63.20
27940;DHT22;15275;51.716;14.324;2022-08-01T08:59:45;28.00;63.00
27940;DHT22;15275;51.716;14.324;2022-08-01T09:02:11;28.00;63.10
27940;DHT22;15275;51.716;14.324;2022-08-01T09:04:38;28.00;63.30
27940;DHT22;15275;51.716;14.324;2022-08-01T09:07:06;28.00;63.20
27940;DHT22;15275;51.716;14.324;2022-08-01T09:09:34;28.10;63.00
27940;DHT22;15275;51.716;14.324;2022-08-01T09:12:00;28.10;62.70
27940;DHT22;15275;51.716;14.324;2022-08-01T09:14:26;28.20;62.50
27940;DHT22;15275;51.716;14.324;2022-08-01T09:19:54;28.20;61.80
27940;DHT22;15275;51.716;14.324;2022-08-01T09:22:23;28.20;61.90
27940;DHT22;15275;51.716;14.324;2022-08-01T09:25:08;28.20;62.20
27940;DHT22;15275;51.716;14.324;2022-08-01T09:27:38;28.20;61.60
27940;DHT22;15275;51.716;14.324;2022-08-01T09:30:13;28.10;62.20
27940;DHT22;15275;51.716;14.324;2022-08-01T09:33:00;28.10;61.90
27940;DHT22;15275;51.716;14.324;2022-08-01T09:35:31;28.10;61.90
27940;DHT22;15275;51.716;14.324;2022-08-01T09:40:48;28.10;62.20
27940;DHT22;15275;51.716;14.324;2022-08-01T09:43:23;28.10;62.60
27940;DHT22;15275;51.716;14.324;2022-08-01T09:45:52;28.10;62.70
27940;DHT22;15275;51.716;14.324;2022-08-01T09:48:19;28.10;62.90
27940;DHT22;15275;51.716;14.324;2022-08-01T09:50:47;28.10;63.10
27940;DHT22;15275;51.716;14.324;2022-08-01T09:53:15;28.10;63.20
27940;DHT22;15275;51.716;14.324;2022-08-01T09:55:42;28.10;63.30
27940;DHT22;15275;51.716;14.324;2022-08-01T09:58:10;28.10;63.50
27940;DHT22;15275;51.716;14.324;2022-08-01T10:00:38;28.10;63.60
27940;DHT22;15275;51.716;14.324;2022-08-01T10:03:24;28.10;63.90
27940;DHT22;15275;51.716;14.324;2022-08-01T10:05:51;28.00;64.10
27940;DHT22;15275;51.716;14.324;2022-08-01T10:08:19;28.00;64.70
27940;DHT22;15275;51.716;14.324;2022-08-01T10:11:07;28.10;64.80
27940;DHT22;15275;51.716;14.324;2022-08-01T10:13:34;28.10;64.40
27940;DHT22;15275;51.716;14.324;2022-08-01T10:16:01;28.20;64.80
27940;DHT22;15275;51.716;14.324;2022-08-01T10:18:31;28.20;65.30
27940;DHT22;15275;51.716;14.324;2022-08-01T10:21:00;28.20;64.90
27940;DHT22;15275;51.716;14.324;2022-08-01T10:23:33;28.30;64.20
27940;DHT22;15275;51.716;14.324;2022-08-01T10:26:01;28.30;64.10
27940;DHT22;15275;51.716;14.324;2022-08-01T10:28:30;28.20;64.40
27940;DHT22;15275;51.716;14.324;2022-08-01T10:30:58;28.20;64.60
27940;DHT22;15275;51.716;14.324;2022-08-01T10:33:24;28.20;64.30
27940;DHT22;15275;51.716;14.324;2022-08-01T10:35:51;28.20;64.20
27940;DHT22;15275;51.716;14.324;2022-08-01T10:38:18;28.20;63.80
27940;DHT22;15275;51.716;14.324;2022-08-01T10:40:44;28.30;63.80
27940;DHT22;15275;51.716;14.324;2022-08-01T10:43:11;28.30;62.90
27940;DHT22;15275;51.716;14.324;2022-08-01T10:45:41;28.30;61.70
27940;DHT22;15275;51.716;14.324;2022-08-01T10:48:49;28.20;61.30
27940;DHT22;15275;51.716;14.324;2022-08-01T10:51:15;28.00;61.90
27940;DHT22;15275;51.716;14.324;2022-08-01T10:53:52;27.60;62.20
27940;DHT22;15275;51.716;14.324;2022-08-01T10:56:19;27.30;63.10
27940;DHT22;15275;51.716;14.324;2022-08-01T10:58:47;26.90;63.70
27940;DHT22;15275;51.716;14.324;2022-08-01T11:01:25;26.60;64.80
27940;DHT22;15275;51.716;14.324;2022-08-01T11:04:09;26.30;66.00
27940;DHT22;15275;51.716;14.324;2022-08-01T11:07:12;25.90;67.50
27940;DHT22;15275;51.716;14.324;2022-08-01T11:09:46;25.50;68.70
27940;DHT22;15275;51.716;14.324;2022-08-01T11:12:15;25.20;69.00
27940;DHT22;15275;51.716;14.324;2022-08-01T11:17:46;24.60;72.00
27940;DHT22;15275;51.716;14.324;2022-08-01T11:20:18;24.30;73.10
27940;DHT22;15275;51.716;14.324;2022-08-01T11:30:44;23.80;76.10
27940;DHT22;15275;51.716;14.324;2022-08-01T11:33:12;23.70;76.10
27940;DHT22;15275;51.716;14.324;2022-08-01T11:38:41;23.60;77.70
27940;DHT22;15275;51.716;14.324;2022-08-01T11:41:31;23.70;77.80
27940;DHT22;15275;51.716;14.324;2022-08-01T11:44:10;23.70;78.10
27940;DHT22;15275;51.716;14.324;2022-08-01T11:52:28;24.00;79.30
27940;DHT22;15275;51.716;14.324;2022-08-01T11:55:08;24.10;79.10
27940;DHT22;15275;51.716;14.324;2022-08-01T11:57:34;24.30;79.50
27940;DHT22;15275;51.716;14.324;2022-08-01T12:00:27;24.40;79.00
27940;DHT22;15275;51.716;14.324;2022-08-01T12:03:01;24.50;78.50
27940;DHT22;15275;51.716;14.324;2022-08-01T12:05:29;24.70;78.40
27940;DHT22;15275;51.716;14.324;2022-08-01T12:07:57;24.80;79.00
27940;DHT22;15275;51.716;14.324;2022-08-01T12:10:29;24.90;78.60
27940;DHT22;15275;51.716;14.324;2022-08-01T12:13:03;25.00;78.40
27940;DHT22;15275;51.716;14.324;2022-08-01T12:15:34;25.10;78.50
27940;DHT22;15275;51.716;14.324;2022-08-01T12:18:05;25.20;78.20
27940;DHT22;15275;51.716;14.324;2022-08-01T12:20:34;25.30;77.90
27940;DHT22;15275;51.716;14.324;2022-08-01T12:23:04;25.40;77.60
27940;DHT22;15275;51.716;14.324;2022-08-01T12:25:33;25.60;77.20
27940;DHT22;15275;51.716;14.324;2022-08-01T12:28:04;25.60;76.80
27940;DHT22;15275;51.716;14.324;2022-08-01T12:30:32;25.70;76.30
27940;DHT22;15275;51.716;14.324;2022-08-01T12:33:07;25.80;76.50
27940;DHT22;15275;51.716;14.324;2022-08-01T12:35:35;25.90;76.20
27940;DHT22;15275;51.716;14.324;2022-08-01T12:38:05;25.90;76.40
27940;DHT22;15275;51.716;14.324;2022-08-01T12:40:42;26.00;76.10
27940;DHT22;15275;51.716;14.324;2022-08-01T12:43:10;26.10;76.60
27940;DHT22;15275;51.716;14.324;2022-08-01T12:45:45;26.20;76.20
27940;DHT22;15275;51.716;14.324;2022-08-01T12:48:14;26.30;75.10
27940;DHT22;15275;51.716;14.324;2022-08-01T12:50:43;26.40;74.70
27940;DHT22;15275;51.716;14.324;2022-08-01T12:53:12;26.50;74.70
27940;DHT22;15275;51.716;14.324;2022-08-01T12:55:46;26.60;74.70
27940;DHT22;15275;51.716;14.324;2022-08-01T12:58:17;26.70;74.10
27940;DHT22;15275;51.716;14.324;2022-08-01T13:00:46;26.80;74.20
27940;DHT22;15275;51.716;14.324;2022-08-01T13:03:18;26.80;73.70
27940;DHT22;15275;51.716;14.324;2022-08-01T13:10:49;27.00;73.20
27940;DHT22;15275;51.716;14.324;2022-08-01T13:13:17;27.10;72.70
27940;DHT22;15275;51.716;14.324;2022-08-01T13:15:46;27.20;72.30
27940;DHT22;15275;51.716;14.324;2022-08-01T13:18:27;27.20;72.80
27940;DHT22;15275;51.716;14.324;2022-08-01T13:21:11;27.30;71.70
27940;DHT22;15275;51.716;14.324;2022-08-01T13:23:39;27.40;70.50
27940;DHT22;15275;51.716;14.324;2022-08-01T13:26:05;27.50;71.60
27940;DHT22;15275;51.716;14.324;2022-08-01T13:28:32;27.50;71.00
27940;DHT22;15275;51.716;14.324;2022-08-01T13:33:41;27.60;70.60
27940;DHT22;15275;51.716;14.324;2022-08-01T13:36:11;27.70;69.60
27940;DHT22;15275;51.716;14.324;2022-08-01T13:38:38;27.80;70.60
27940;DHT22;15275;51.716;14.324;2022-08-01T13:41:23;27.90;70.00
27940;DHT22;15275;51.716;14.324;2022-08-01T13:43:49;27.90;69.40
27940;DHT22;15275;51.716;14.324;2022-08-01T13:46:15;28.00;68.70
27940;DHT22;15275;51.716;14.324;2022-08-01T13:48:41;28.00;68.80
27940;DHT22;15275;51.716;14.324;2022-08-01T13:51:07;28.00;68.80
27940;DHT22;15275;51.716;14.324;2022-08-01T13:53:33;28.00;68.60
27940;DHT22;15275;51.716;14.324;2022-08-01T13:55:59;28.10;68.60
27940;DHT22;15275;51.716;14.324;2022-08-01T13:58:25;28.10;68.00
27940;DHT22;15275;51.716;14.324;2022-08-01T14:00:53;28.10;67.80
27940;DHT22;15275;51.716;14.324;2022-08-01T14:03:19;28.10;67.50
27940;DHT22;15275;51.716;14.324;2022-08-01T14:05:46;28.10;67.00
27940;DHT22;15275;51.716;14.324;2022-08-01T14:08:12;28.10;66.70
27940;DHT22;15275;51.716;14.324;2022-08-01T14:10:38;28.00;66.90
27940;DHT22;15275;51.716;14.324;2022-08-01T14:13:04;27.90;66.60
27940;DHT22;15275;51.716;14.324;2022-08-01T14:15:30;27.90;66.80
27940;DHT22;15275;51.716;14.324;2022-08-01T14:17:57;27.80;66.70
27940;DHT22;15275;51.716;14.324;2022-08-01T14:20:24;27.70;66.70
27940;DHT22;15275;51.716;14.324;2022-08-01T14:22:50;27.70;66.90
27940;DHT22;15275;51.716;14.324;2022-08-01T14:25:16;27.60;67.00
27940;DHT22;15275;51.716;14.324;2022-08-01T14:27:44;27.60;67.10
27940;DHT22;15275;51.716;14.324;2022-08-01T14:30:11;27.60;67.50
27940;DHT22;15275;51.716;14.324;2022-08-01T14:32:37;27.60;67.30
27940;DHT22;15275;51.716;14.324;2022-08-01T14:35:05;27.60;67.20
27940;DHT22;15275;51.716;14.324;2022-08-01T14:37:32;27.60;67.10
27940;DHT22;15275;51.716;14.324;2022-08-01T14:39:59;27.60;67.70
27940;DHT22;15275;51.716;14.324;2022-08-01T14:42:30;27.70;67.70
27940;DHT22;15275;51.716;14.324;2022-08-01T14:44:56;27.70;67.70
27940;DHT22;15275;51.716;14.324;2022-08-01T14:47:22;27.80;67.80
27940;DHT22;15275;51.716;14.324;2022-08-01T14:49:49;27.90;67.40
27940;DHT22;15275;51.716;14.324;2022-08-01T14:52:16;28.00;67.00
27940;DHT22;15275;51.716;14.324;2022-08-01T14:54:42;28.00;67.00
27940;DHT22;15275;51.716;14.324;2022-08-01T14:57:08;28.10;66.60
27940;DHT22;15275;51.716;14.324;2022-08-01T14:59:34;28.20;66.00
27940;DHT22;15275;51.716;14.324;2022-08-01T15:02:01;28.20;65.80
27940;DHT22;15275;51.716;14.324;2022-08-01T15:04:27;28.20;65.60
27940;DHT22;15275;51.716;14.324;2022-08-01T15:06:53;28.20;65.60
27940;DHT22;15275;51.716;14.324;2022-08-01T15:09:19;28.20;65.40
27940;DHT22;15275;51.716;14.324;2022-08-01T15:11:45;28.20;65.20
27940;DHT22;15275;51.716;14.324;2022-08-01T15:14:12;28.20;65.00
27940;DHT22;15275;51.716;14.324;2022-08-01T15:16:56;28.20;65.40
27940;DHT22;15275;51.716;14.324;2022-08-01T15:19:22;28.30;66.10
27940;DHT22;15275;51.716;14.324;2022-08-01T15:21:48;28.40;66.40
27940;DHT22;15275;51.716;14.324;2022-08-01T15:24:13;28.40;65.00
27940;DHT22;15275;51.716;14.324;2022-08-01T15:26:40;28.50;64.70
27940;DHT22;15275;51.716;14.324;2022-08-01T15:29:06;28.60;64.20
27940;DHT22;15275;51.716;14.324;2022-08-01T15:31:32;28.60;64.10
27940;DHT22;15275;51.716;14.324;2022-08-01T15:33:58;28.70;64.20
27940;DHT22;15275;51.716;14.324;2022-08-01T15:36:24;28.80;64.60
27940;DHT22;15275;51.716;14.324;2022-08-01T15:38:50;28.80;64.10
27940;DHT22;15275;51.716;14.324;2022-08-01T15:41:15;28.90;64.00
27940;DHT22;15275;51.716;14.324;2022-08-01T15:43:41;28.90;64.00
27940;DHT22;15275;51.716;14.324;2022-08-01T15:46:07;29.00;63.40
27940;DHT22;15275;51.716;14.324;2022-08-01T15:48:33;29.00;63.40
27940;DHT22;15275;51.716;14.324;2022-08-01T15:50:59;28.90;63.20
27940;DHT22;15275;51.716;14.324;2022-08-01T15:53:25;28.90;63.20
27940;DHT22;15275;51.716;14.324;2022-08-01T15:55:51;28.90;63.40
27940;DHT22;15275;51.716;14.324;2022-08-01T15:58:16;28.90;63.70
27940;DHT22;15275;51.716;14.324;2022-08-01T16:00:42;28.90;63.70
27940;DHT22;15275;51.716;14.324;2022-08-01T16:03:08;28.90;63.40
27940;DHT22;15275;51.716;14.324;2022-08-01T16:05:35;29.00;63.20
27940;DHT22;15275;51.716;14.324;2022-08-01T16:08:01;29.00;63.20
27940;DHT22;15275;51.716;14.324;2022-08-01T16:10:29;29.00;63.10